createdAt,value
2023-04-26T00:00:09.763Z,38.76
2023-04-26T00:00:31.651Z,38.60
2023-04-26T00:00:53.469Z,38.75
2023-04-26T00:01:16.514Z,38.41
2023-04-26T00:01:39.074Z,38.57
2023-04-26T00:02:00.740Z,38.79
2023-04-26T00:02:22.570Z,38.66
2023-04-26T00:02:44.334Z,38.71
2023-04-26T00:03:07.888Z,38.86
2023-04-26T00:03:31.420Z,38.65
2023-04-26T00:03:53.383Z,38.81
2023-04-26T00:04:15.429Z,38.89
2023-04-26T00:04:37.655Z,38.69
2023-04-26T00:05:02.012Z,38.75
2023-04-26T00:05:25.867Z,38.86
2023-04-26T00:05:48.850Z,38.90
2023-04-26T00:06:12.166Z,38.66
2023-04-26T00:06:34.832Z,38.29
2023-04-26T00:06:56.655Z,38.61
2023-04-26T00:07:20.556Z,38.69
2023-04-26T00:07:42.537Z,38.85
2023-04-26T00:08:05.630Z,38.89
2023-04-26T00:08:27.213Z,38.89
2023-04-26T00:08:49.927Z,38.76
2023-04-26T00:09:11.660Z,38.48
2023-04-26T00:09:33.568Z,38.58
2023-04-26T00:09:55.174Z,38.76
2023-04-26T00:10:16.794Z,38.88
2023-04-26T00:10:40.691Z,38.68
2023-04-26T00:11:02.457Z,38.63
2023-04-26T00:11:24.051Z,38.40
2023-04-26T00:11:45.723Z,38.34
2023-04-26T00:12:07.964Z,38.48
2023-04-26T00:12:30.597Z,38.82
2023-04-26T00:12:52.323Z,38.57
2023-04-26T00:13:13.958Z,38.35
2023-04-26T00:13:37.102Z,38.14
2023-04-26T00:14:00.164Z,38.66
2023-04-26T00:14:21.846Z,38.92
2023-04-26T00:14:43.496Z,38.86
2023-04-26T00:15:06.222Z,38.95
2023-04-26T00:15:28.866Z,38.99
2023-04-26T00:15:50.752Z,39.11
2023-04-26T00:16:14.281Z,38.92
2023-04-26T00:16:36.124Z,38.84
2023-04-26T00:16:58.790Z,39.01
2023-04-26T00:17:20.581Z,39.08
2023-04-26T00:17:42.950Z,38.81
2023-04-26T00:18:04.943Z,38.84
2023-04-26T00:18:27.737Z,38.75
2023-04-26T00:18:50.157Z,38.72
2023-04-26T00:19:12.670Z,38.92
2023-04-26T00:19:34.296Z,39.14
2023-04-26T00:19:57.505Z,39.07
2023-04-26T00:20:19.679Z,38.69
2023-04-26T00:20:41.450Z,38.98
2023-04-26T00:21:03.150Z,38.92
2023-04-26T00:21:24.906Z,38.97
2023-04-26T00:21:47.432Z,38.91
2023-04-26T00:22:09.220Z,38.96
2023-04-26T00:23:09.258Z,39.29
2023-04-26T00:23:30.860Z,39.06
2023-04-26T00:23:53.478Z,38.92
2023-04-26T00:24:15.221Z,38.85
2023-04-26T00:24:36.858Z,39.03
2023-04-26T00:24:58.534Z,39.16
2023-04-26T00:25:20.177Z,39.14
2023-04-26T00:25:42.816Z,39.08
2023-04-26T00:26:04.714Z,38.90
2023-04-26T00:26:26.290Z,38.89
2023-04-26T00:26:48.155Z,39.33
2023-04-26T00:27:10.816Z,39.36
2023-04-26T00:27:32.419Z,39.29
2023-04-26T00:27:54.060Z,39.30
2023-04-26T00:28:15.860Z,39.50
2023-04-26T00:28:39.157Z,39.24
2023-04-26T00:29:00.808Z,39.13
2023-04-26T00:29:22.515Z,38.88
2023-04-26T00:29:44.282Z,39.02
2023-04-26T00:30:07.533Z,39.35
2023-04-26T00:30:29.626Z,39.17
2023-04-26T00:30:52.255Z,39.11
2023-04-26T00:31:15.226Z,38.96
2023-04-26T00:31:36.945Z,39.16
2023-04-26T00:31:59.478Z,39.12
2023-04-26T00:32:22.139Z,38.73
2023-04-26T00:32:43.997Z,38.79
2023-04-26T00:33:05.771Z,38.84
2023-04-26T00:33:27.950Z,38.71
2023-04-26T00:33:52.199Z,38.54
2023-04-26T00:34:14.082Z,38.76
2023-04-26T00:34:36.614Z,39.00
2023-04-26T00:34:58.218Z,38.86
2023-04-26T00:35:20.621Z,38.62
2023-04-26T00:35:43.369Z,38.78
2023-04-26T00:36:05.247Z,38.79
2023-04-26T00:36:27.774Z,38.74
2023-04-26T00:36:49.616Z,39.18
2023-04-26T00:37:12.320Z,38.72
2023-04-26T00:37:33.941Z,38.55
2023-04-26T00:37:55.520Z,38.88
2023-04-26T00:38:18.478Z,38.91
2023-04-26T00:38:41.258Z,38.94
2023-04-26T00:39:03.497Z,39.25
2023-04-26T00:39:25.340Z,38.84
2023-04-26T00:39:47.536Z,39.00
2023-04-26T00:40:11.418Z,39.07
2023-04-26T00:40:35.416Z,39.09
2023-04-26T00:40:57.102Z,38.97
2023-04-26T00:41:18.817Z,39.08
2023-04-26T00:41:40.540Z,38.99
2023-04-26T00:42:03.220Z,39.06
2023-04-26T00:42:26.928Z,39.10
2023-04-26T00:42:48.608Z,39.13
2023-04-26T00:43:11.042Z,39.05
2023-04-26T00:43:33.685Z,38.96
2023-04-26T00:43:55.698Z,39.00
2023-04-26T00:44:17.325Z,39.18
2023-04-26T00:44:40.352Z,39.15
2023-04-26T00:45:03.191Z,38.90
2023-04-26T00:45:24.914Z,38.87
2023-04-26T00:45:46.723Z,39.02
2023-04-26T00:46:09.018Z,39.07
2023-04-26T00:46:31.201Z,39.05
2023-04-26T00:46:55.827Z,39.16
2023-04-26T00:47:17.745Z,39.20
2023-04-26T00:47:39.586Z,39.28
2023-04-26T00:48:02.644Z,39.58
2023-04-26T00:48:26.231Z,39.33
2023-04-26T00:48:48.450Z,39.35
2023-04-26T00:49:13.572Z,39.21
2023-04-26T00:49:35.291Z,39.28
2023-04-26T00:49:58.006Z,39.36
2023-04-26T00:50:20.512Z,39.28
2023-04-26T00:50:42.433Z,39.22
2023-04-26T00:51:05.068Z,39.32
2023-04-26T00:51:27.154Z,39.09
2023-04-26T00:51:49.903Z,39.28
2023-04-26T00:52:12.542Z,39.59
2023-04-26T00:52:34.176Z,39.87
2023-04-26T00:52:57.268Z,39.55
2023-04-26T00:53:20.901Z,39.41
2023-04-26T00:53:43.770Z,39.45
2023-04-26T00:54:05.556Z,39.29
2023-04-26T00:54:27.284Z,39.23
2023-04-26T00:54:49.395Z,39.17
2023-04-26T00:55:12.347Z,39.23
2023-04-26T00:55:34.617Z,39.41
2023-04-26T00:55:56.611Z,39.31
2023-04-26T00:56:19.514Z,39.37
2023-04-26T00:56:42.512Z,39.34
2023-04-26T00:57:07.096Z,39.22
2023-04-26T00:57:28.718Z,39.55
2023-04-26T00:57:50.593Z,39.66
2023-04-26T00:58:12.481Z,39.65
2023-04-26T00:58:34.124Z,39.58
2023-04-26T00:58:56.938Z,39.52
2023-04-26T00:59:20.164Z,39.52
2023-04-26T00:59:41.849Z,39.60
2023-04-26T01:00:04.104Z,39.69
2023-04-26T01:00:27.701Z,39.51
2023-04-26T01:00:50.303Z,39.86
2023-04-26T01:01:13.341Z,39.54
2023-04-26T01:01:35.617Z,39.44
2023-04-26T01:01:57.592Z,39.43
2023-04-26T01:02:20.988Z,39.29
2023-04-26T01:02:43.518Z,39.54
2023-04-26T01:03:05.872Z,39.77
2023-04-26T01:03:28.360Z,39.36
2023-04-26T01:03:51.494Z,39.68
2023-04-26T01:04:14.866Z,39.34
2023-04-26T01:04:37.342Z,39.41
2023-04-26T01:04:59.128Z,39.47
2023-04-26T01:05:21.886Z,39.61
2023-04-26T01:05:43.625Z,39.36
2023-04-26T01:06:05.677Z,39.32
2023-04-26T01:06:33.064Z,39.24
2023-04-26T01:06:56.375Z,39.15
2023-04-26T01:07:18.378Z,39.19
2023-04-26T01:07:40.196Z,39.20
2023-04-26T01:08:02.560Z,39.12
2023-04-26T01:08:28.348Z,38.93
2023-04-26T01:08:53.902Z,39.30
2023-04-26T01:09:18.166Z,39.44
2023-04-26T01:09:42.118Z,39.66
2023-04-26T01:10:05.454Z,39.56
2023-04-26T01:10:28.868Z,39.41
2023-04-26T01:10:53.275Z,39.26
2023-04-26T01:11:16.685Z,39.31
2023-04-26T01:11:38.727Z,39.29
2023-04-26T01:12:01.324Z,39.50
2023-04-26T01:12:24.317Z,39.38
2023-04-26T01:12:47.852Z,39.57
2023-04-26T01:13:14.174Z,39.57
2023-04-26T01:13:37.114Z,39.75
2023-04-26T01:13:58.906Z,39.67
2023-04-26T01:14:25.130Z,39.32
2023-04-26T01:14:47.500Z,39.56
2023-04-26T01:15:11.440Z,39.73
2023-04-26T01:15:33.557Z,39.70
2023-04-26T01:15:57.303Z,39.75
2023-04-26T01:16:20.320Z,39.73
2023-04-26T01:16:42.370Z,39.51
2023-04-26T01:17:06.004Z,39.49
2023-04-26T01:17:28.128Z,39.44
2023-04-26T01:17:52.857Z,39.65
2023-04-26T01:18:15.127Z,39.64
2023-04-26T01:18:36.900Z,39.81
2023-04-26T01:18:59.349Z,39.88
2023-04-26T01:19:21.355Z,39.77
2023-04-26T01:19:48.449Z,39.65
2023-04-26T01:20:10.458Z,39.73
2023-04-26T01:20:32.297Z,40.00
2023-04-26T01:20:54.028Z,39.92
2023-04-26T01:21:21.940Z,39.88
2023-04-26T01:21:43.940Z,39.84
2023-04-26T01:22:05.591Z,39.98
2023-04-26T01:22:28.617Z,39.97
2023-04-26T01:22:52.740Z,39.85
2023-04-26T01:23:14.729Z,39.75
2023-04-26T01:23:36.438Z,39.68
2023-04-26T01:23:58.027Z,39.70
2023-04-26T01:24:20.646Z,39.64
2023-04-26T01:24:44.808Z,39.64
2023-04-26T01:25:09.260Z,39.79
2023-04-26T01:25:30.873Z,39.84
2023-04-26T01:25:56.141Z,39.70
2023-04-26T01:26:17.911Z,39.57
2023-04-26T01:26:45.241Z,39.61
2023-04-26T01:27:08.917Z,39.84
2023-04-26T01:27:31.549Z,39.58
2023-04-26T01:27:53.207Z,39.68
2023-04-26T01:28:14.857Z,39.78
2023-04-26T01:28:36.478Z,39.63
2023-04-26T01:28:59.814Z,39.82
2023-04-26T01:29:24.268Z,39.57
2023-04-26T01:29:46.227Z,39.60
2023-04-26T01:30:09.703Z,39.67
2023-04-26T01:30:31.357Z,39.70
2023-04-26T01:30:54.315Z,39.71
2023-04-26T01:31:16.201Z,39.50
2023-04-26T01:31:37.956Z,39.69
2023-04-26T01:31:59.687Z,39.68
2023-04-26T01:32:24.355Z,39.67
2023-04-26T01:32:47.422Z,39.74
2023-04-26T01:33:09.137Z,39.95
2023-04-26T01:33:30.846Z,39.94
2023-04-26T01:33:52.480Z,40.03
2023-04-26T01:34:14.817Z,40.22
2023-04-26T01:34:37.456Z,40.23
2023-04-26T01:35:00.526Z,40.09
2023-04-26T01:35:22.296Z,40.31
2023-04-26T01:35:44.042Z,40.22
2023-04-26T01:36:08.663Z,40.13
2023-04-26T01:36:32.456Z,39.92
2023-04-26T01:36:54.217Z,39.89
2023-04-26T01:37:15.878Z,39.85
2023-04-26T01:37:37.690Z,40.14
2023-04-26T01:38:00.812Z,39.99
2023-04-26T01:38:24.096Z,40.11
2023-04-26T01:38:45.759Z,40.26
2023-04-26T01:39:08.188Z,40.33
2023-04-26T01:39:29.797Z,40.37
2023-04-26T01:39:51.466Z,40.30
2023-04-26T01:40:15.891Z,40.43
2023-04-26T01:40:37.967Z,40.15
2023-04-26T01:41:01.045Z,40.22
2023-04-26T01:41:22.668Z,40.22
2023-04-26T01:41:45.334Z,40.05
2023-04-26T01:42:07.434Z,40.25
2023-04-26T01:42:28.986Z,39.96
2023-04-26T01:42:50.768Z,39.78
2023-04-26T01:43:13.444Z,39.75
2023-04-26T01:43:35.771Z,39.92
2023-04-26T01:43:57.421Z,40.14
2023-04-26T01:44:19.721Z,40.34
2023-04-26T01:44:42.440Z,40.36
2023-04-26T01:45:05.314Z,40.60
2023-04-26T01:45:47.030Z,40.46
2023-04-26T01:46:24.575Z,40.37
2023-04-26T01:46:47.334Z,40.43
2023-04-26T01:47:09.129Z,40.44
2023-04-26T01:47:30.921Z,40.51
2023-04-26T01:47:52.618Z,40.31
2023-04-26T01:48:15.278Z,40.19
2023-04-26T01:48:36.915Z,40.37
2023-04-26T01:48:58.621Z,40.48
2023-04-26T01:49:20.309Z,40.31
2023-04-26T01:49:43.129Z,40.30
2023-04-26T01:50:06.218Z,40.18
2023-04-26T01:50:28.216Z,40.16
2023-04-26T01:50:49.905Z,39.94
2023-04-26T01:51:11.600Z,40.07
2023-04-26T01:51:35.219Z,40.17
2023-04-26T01:51:56.907Z,40.50
2023-04-26T01:52:19.134Z,40.52
2023-04-26T01:52:40.902Z,40.35
2023-04-26T01:53:04.513Z,40.28
2023-04-26T01:53:27.131Z,40.63
2023-04-26T01:53:48.751Z,40.62
2023-04-26T01:54:10.433Z,40.51
2023-04-26T01:54:32.040Z,40.27
2023-04-26T01:54:56.208Z,40.36
2023-04-26T01:55:17.814Z,40.12
2023-04-26T01:55:39.563Z,39.89
2023-04-26T01:56:01.727Z,39.73
2023-04-26T01:56:24.932Z,39.80
2023-04-26T01:56:47.945Z,40.00
2023-04-26T01:57:09.824Z,40.24
2023-04-26T01:57:31.536Z,40.26
2023-04-26T01:57:54.099Z,40.24
2023-04-26T01:58:16.778Z,40.25
2023-04-26T01:58:38.418Z,40.61
2023-04-26T01:59:00.028Z,40.34
2023-04-26T01:59:21.690Z,40.25
2023-04-26T01:59:44.273Z,40.45
2023-04-26T02:00:08.699Z,40.33
2023-04-26T02:00:36.646Z,40.31
2023-04-26T02:01:05.768Z,40.28
2023-04-26T02:01:28.426Z,40.36
2023-04-26T02:01:50.139Z,40.14
2023-04-26T02:02:11.968Z,40.26
2023-04-26T02:02:33.838Z,40.34
2023-04-26T02:02:56.859Z,40.23
2023-04-26T02:03:18.677Z,39.91
2023-04-26T02:03:40.518Z,40.28
2023-04-26T02:04:02.114Z,40.32
2023-04-26T02:04:25.046Z,40.42
2023-04-26T02:04:46.808Z,40.63
2023-04-26T02:05:11.129Z,40.80
2023-04-26T02:05:32.893Z,40.58
2023-04-26T02:05:54.626Z,40.68
2023-04-26T02:06:17.264Z,40.75
2023-04-26T02:06:39.286Z,40.64
2023-04-26T02:07:00.902Z,40.83
2023-04-26T02:07:22.585Z,40.62
2023-04-26T02:07:44.288Z,40.80
2023-04-26T02:08:08.288Z,40.96
2023-04-26T02:08:30.175Z,40.63
2023-04-26T02:08:52.541Z,40.50
2023-04-26T02:09:14.429Z,40.73
2023-04-26T02:09:37.397Z,40.45
2023-04-26T02:09:59.192Z,40.51
2023-04-26T02:10:20.926Z,40.77
2023-04-26T02:10:42.533Z,40.97
2023-04-26T02:11:04.354Z,40.85
2023-04-26T02:11:27.356Z,41.02
2023-04-26T02:11:48.904Z,41.14
2023-04-26T02:12:10.513Z,40.92
2023-04-26T02:12:32.140Z,40.72
2023-04-26T02:12:54.756Z,40.86
2023-04-26T02:13:16.333Z,40.77
2023-04-26T02:13:38.208Z,40.87
2023-04-26T02:13:59.908Z,40.75
2023-04-26T02:14:22.443Z,40.71
2023-04-26T02:14:44.162Z,40.87
2023-04-26T02:15:08.279Z,40.81
2023-04-26T02:15:29.860Z,40.87
2023-04-26T02:15:52.942Z,40.81
2023-04-26T02:16:16.402Z,40.90
2023-04-26T02:16:39.978Z,41.18
2023-04-26T02:17:02.709Z,41.17
2023-04-26T02:17:26.488Z,41.05
2023-04-26T02:17:49.475Z,41.06
2023-04-26T02:18:11.550Z,40.98
2023-04-26T02:18:34.392Z,41.15
2023-04-26T02:18:55.982Z,40.80
2023-04-26T02:19:17.566Z,40.92
2023-04-26T02:19:39.205Z,40.93
2023-04-26T02:20:01.798Z,40.92
2023-04-26T02:20:23.663Z,40.95
2023-04-26T02:20:45.718Z,40.83
2023-04-26T02:21:08.561Z,40.85
2023-04-26T02:21:30.626Z,40.84
2023-04-26T02:21:55.683Z,40.95
2023-04-26T02:22:17.850Z,41.08
2023-04-26T02:22:39.538Z,41.23
2023-04-26T02:23:01.286Z,41.35
2023-04-26T02:23:25.435Z,41.31
2023-04-26T02:23:47.072Z,40.91
2023-04-26T02:24:09.184Z,40.81
2023-04-26T02:24:53.711Z,41.17
2023-04-26T02:25:15.737Z,41.24
2023-04-26T02:25:37.873Z,41.35
2023-04-26T02:25:59.514Z,41.25
2023-04-26T02:26:22.073Z,41.33
2023-04-26T02:26:43.755Z,41.20
2023-04-26T02:27:05.494Z,41.19
2023-04-26T02:27:29.327Z,41.08
2023-04-26T02:27:51.907Z,41.02
2023-04-26T02:28:13.736Z,41.22
2023-04-26T02:28:35.356Z,41.08
2023-04-26T02:28:56.990Z,41.21
2023-04-26T02:29:29.449Z,41.32
2023-04-26T02:30:02.039Z,41.04
2023-04-26T02:30:24.233Z,40.93
2023-04-26T02:30:46.980Z,40.92
2023-04-26T02:31:08.888Z,41.12
2023-04-26T02:31:30.663Z,41.20
2023-04-26T02:31:52.525Z,41.06
2023-04-26T02:32:14.653Z,41.29
2023-04-26T02:32:37.371Z,41.29
2023-04-26T02:32:59.321Z,41.16
2023-04-26T02:33:21.439Z,41.38
2023-04-26T02:33:43.101Z,41.30
2023-04-26T02:34:06.239Z,41.39
2023-04-26T02:34:28.148Z,41.42
2023-04-26T02:34:49.813Z,41.30
2023-04-26T02:35:11.415Z,41.42
2023-04-26T02:35:33.990Z,41.18
2023-04-26T02:35:56.645Z,41.13
2023-04-26T02:36:18.235Z,41.21
2023-04-26T02:36:39.949Z,41.32
2023-04-26T02:37:01.797Z,41.25
2023-04-26T02:37:24.387Z,41.35
2023-04-26T02:37:48.883Z,41.27
2023-04-26T02:38:10.478Z,41.18
2023-04-26T02:38:35.140Z,41.14
2023-04-26T02:38:59.367Z,41.38
2023-04-26T02:39:21.410Z,41.46
2023-04-26T02:39:43.139Z,41.33
2023-04-26T02:40:06.605Z,41.38
2023-04-26T02:40:30.152Z,41.47
2023-04-26T02:40:58.406Z,41.39
2023-04-26T02:41:20.348Z,41.36
2023-04-26T02:41:42.089Z,41.65
2023-04-26T02:42:05.050Z,41.55
2023-04-26T02:42:26.678Z,41.42
2023-04-26T02:42:48.709Z,41.34
2023-04-26T02:43:10.409Z,41.33
2023-04-26T02:43:34.520Z,41.33
2023-04-26T02:43:56.252Z,41.17
2023-04-26T02:44:17.895Z,41.40
2023-04-26T02:44:39.535Z,41.06
2023-04-26T02:45:02.310Z,41.07
2023-04-26T02:45:24.431Z,41.21
2023-04-26T02:45:46.074Z,41.52
2023-04-26T02:46:08.994Z,41.15
2023-04-26T02:46:30.737Z,40.74
2023-04-26T02:46:53.436Z,40.67
2023-04-26T02:47:15.322Z,40.85
2023-04-26T02:47:38.528Z,40.71
2023-04-26T02:48:00.575Z,40.88
2023-04-26T02:48:23.249Z,41.24
2023-04-26T02:48:45.457Z,41.32
2023-04-26T02:49:07.796Z,41.54
2023-04-26T02:49:30.649Z,41.30
2023-04-26T02:49:53.222Z,41.32
2023-04-26T02:50:15.001Z,41.19
2023-04-26T02:50:36.685Z,41.21
2023-04-26T02:50:58.995Z,41.19
2023-04-26T02:51:20.914Z,41.17
2023-04-26T02:51:43.495Z,41.24
2023-04-26T02:52:05.269Z,41.23
2023-04-26T02:52:27.273Z,40.92
2023-04-26T02:52:48.985Z,41.18
2023-04-26T02:53:11.634Z,41.14
2023-04-26T02:53:35.470Z,41.14
2023-04-26T02:53:57.232Z,41.08
2023-04-26T02:54:19.538Z,40.99
2023-04-26T02:54:42.119Z,41.14
2023-04-26T02:55:04.439Z,41.06
2023-04-26T02:55:26.105Z,41.18
2023-04-26T02:55:48.121Z,41.31
2023-04-26T02:56:09.996Z,41.57
2023-04-26T02:56:32.649Z,41.63
2023-04-26T02:56:55.654Z,41.48
2023-04-26T02:57:17.228Z,41.70
2023-04-26T02:57:38.837Z,41.88
2023-04-26T02:58:03.212Z,41.65
2023-04-26T02:58:24.877Z,41.73
2023-04-26T02:58:47.057Z,41.82
2023-04-26T02:59:09.092Z,41.76
2023-04-26T02:59:32.498Z,41.49
2023-04-26T02:59:55.413Z,41.58
2023-04-26T03:00:17.361Z,41.41
2023-04-26T03:00:38.997Z,41.24
2023-04-26T03:01:01.923Z,41.38
2023-04-26T03:01:23.897Z,41.69
2023-04-26T03:01:45.590Z,41.69
2023-04-26T03:02:07.696Z,41.69
2023-04-26T03:02:31.426Z,41.66
2023-04-26T03:02:53.379Z,41.47
2023-04-26T03:03:15.619Z,41.51
2023-04-26T03:03:37.774Z,41.40
2023-04-26T03:04:00.809Z,41.60
2023-04-26T03:04:22.781Z,41.59
2023-04-26T03:04:44.521Z,41.67
2023-04-26T03:05:06.501Z,41.62
2023-04-26T03:05:29.174Z,41.72
2023-04-26T03:05:50.819Z,41.11
2023-04-26T03:06:12.952Z,41.12
2023-04-26T03:06:34.756Z,41.24
2023-04-26T03:07:05.225Z,41.38
2023-04-26T03:07:36.600Z,41.64
2023-04-26T03:07:58.364Z,41.84
2023-04-26T03:08:19.940Z,41.69
2023-04-26T03:08:43.892Z,41.68
2023-04-26T03:09:06.748Z,41.75
2023-04-26T03:09:28.406Z,41.75
2023-04-26T03:09:50.135Z,41.88
2023-04-26T03:10:12.711Z,41.57
2023-04-26T03:10:37.127Z,41.48
2023-04-26T03:10:58.807Z,41.24
2023-04-26T03:11:20.482Z,41.37
2023-04-26T03:11:42.351Z,41.30
2023-04-26T03:12:07.619Z,41.62
2023-04-26T03:12:30.098Z,41.59
2023-04-26T03:12:51.690Z,41.56
2023-04-26T03:13:13.382Z,41.59
2023-04-26T03:13:36.559Z,41.50
2023-04-26T03:13:58.952Z,41.59
2023-04-26T03:14:20.601Z,41.37
2023-04-26T03:14:42.352Z,41.21
2023-04-26T03:15:05.489Z,40.98
2023-04-26T03:15:28.054Z,40.72
2023-04-26T03:15:51.953Z,40.81
2023-04-26T03:16:13.675Z,40.68
2023-04-26T03:16:43.412Z,41.26
2023-04-26T03:17:05.390Z,41.65
2023-04-26T03:17:28.203Z,41.60
2023-04-26T03:17:50.160Z,41.57
2023-04-26T03:18:12.214Z,41.48
2023-04-26T03:18:34.883Z,41.40
2023-04-26T03:18:56.812Z,41.96
2023-04-26T03:19:19.452Z,41.81
2023-04-26T03:19:42.102Z,42.02
2023-04-26T03:20:06.113Z,41.87
2023-04-26T03:20:29.519Z,41.77
2023-04-26T03:20:52.796Z,41.53
2023-04-26T03:21:16.549Z,41.70
2023-04-26T03:21:38.172Z,41.99
2023-04-26T03:22:01.288Z,42.14
2023-04-26T03:22:23.362Z,42.01
2023-04-26T03:22:46.950Z,41.98
2023-04-26T03:23:09.971Z,42.10
2023-04-26T03:23:33.073Z,41.91
2023-04-26T03:23:56.476Z,41.73
2023-04-26T03:24:18.216Z,41.63
2023-04-26T03:24:41.249Z,41.67
2023-04-26T03:25:05.326Z,41.78
2023-04-26T03:25:27.632Z,41.70
2023-04-26T03:25:49.247Z,41.92
2023-04-26T03:26:11.082Z,41.71
2023-04-26T03:26:32.933Z,41.43
2023-04-26T03:26:55.579Z,41.64
2023-04-26T03:27:17.419Z,41.81
2023-04-26T03:27:39.584Z,42.07
2023-04-26T03:28:01.349Z,42.08
2023-04-26T03:28:24.013Z,42.04
2023-04-26T03:28:45.761Z,41.90
2023-04-26T03:29:07.703Z,41.71
2023-04-26T03:29:29.408Z,41.82
2023-04-26T03:29:52.124Z,41.94
2023-04-26T03:30:14.675Z,42.21
2023-04-26T03:30:38.300Z,42.03
2023-04-26T03:31:01.723Z,42.14
2023-04-26T03:31:24.657Z,42.02
2023-04-26T03:31:47.426Z,41.92
2023-04-26T03:32:09.088Z,41.93
2023-04-26T03:32:31.206Z,42.14
2023-04-26T03:32:53.323Z,41.98
2023-04-26T03:33:15.947Z,42.26
2023-04-26T03:33:39.168Z,42.05
2023-04-26T03:34:00.860Z,41.97
2023-04-26T03:34:22.685Z,42.02
2023-04-26T03:34:44.461Z,41.92
2023-04-26T03:35:07.469Z,41.72
2023-04-26T03:35:29.130Z,41.92
2023-04-26T03:35:51.502Z,41.66
2023-04-26T03:36:14.184Z,41.64
2023-04-26T03:36:35.802Z,41.78
2023-04-26T03:36:59.362Z,41.71
2023-04-26T03:37:21.324Z,41.70
2023-04-26T03:37:53.219Z,41.67
2023-04-26T03:38:15.489Z,41.82
2023-04-26T03:38:37.104Z,41.83
2023-04-26T03:39:00.200Z,41.81
2023-04-26T03:39:22.006Z,41.90
2023-04-26T03:39:44.643Z,41.95
2023-04-26T03:40:08.579Z,41.68
2023-04-26T03:40:30.252Z,41.83
2023-04-26T03:40:52.257Z,41.60
2023-04-26T03:41:13.877Z,41.45
2023-04-26T03:41:39.368Z,41.43
2023-04-26T03:42:03.895Z,41.73
2023-04-26T03:42:25.489Z,41.84
2023-04-26T03:42:47.548Z,41.58
2023-04-26T03:43:11.470Z,41.60
2023-04-26T03:43:33.389Z,41.66
2023-04-26T03:43:55.454Z,41.88
2023-04-26T03:44:18.352Z,42.06
2023-04-26T03:44:41.071Z,42.40
2023-04-26T03:45:03.855Z,42.40
2023-04-26T03:45:26.818Z,42.54
2023-04-26T03:45:50.385Z,42.82
2023-04-26T03:46:13.157Z,42.82
2023-04-26T03:46:34.880Z,42.65
2023-04-26T03:46:59.513Z,42.63
2023-04-26T03:47:21.508Z,42.86
2023-04-26T03:47:43.609Z,42.71
2023-04-26T03:48:07.160Z,42.76
2023-04-26T03:48:28.874Z,43.12
2023-04-26T03:48:50.722Z,42.67
2023-04-26T03:49:12.452Z,42.65
2023-04-26T03:49:35.077Z,42.46
2023-04-26T03:49:56.793Z,42.45
2023-04-26T03:50:19.523Z,42.51
2023-04-26T03:50:41.767Z,42.45
2023-04-26T03:51:04.685Z,42.34
2023-04-26T03:51:28.233Z,42.48
2023-04-26T03:51:49.881Z,42.40
2023-04-26T03:52:11.535Z,42.12
2023-04-26T03:52:33.216Z,42.15
2023-04-26T03:52:56.355Z,42.23
2023-04-26T03:53:17.974Z,42.34
2023-04-26T03:53:39.708Z,42.22
2023-04-26T03:54:03.426Z,41.97
2023-04-26T03:54:25.396Z,42.17
2023-04-26T03:54:48.036Z,42.14
2023-04-26T03:55:11.858Z,41.88
2023-04-26T03:55:34.013Z,41.82
2023-04-26T03:55:56.457Z,41.91
2023-04-26T03:56:19.041Z,42.08
2023-04-26T03:56:41.320Z,42.30
2023-04-26T03:57:03.270Z,42.14
2023-04-26T03:57:24.913Z,42.05
2023-04-26T03:57:46.896Z,41.99
2023-04-26T03:58:09.639Z,42.35
2023-04-26T03:58:31.323Z,42.23
2023-04-26T03:58:53.202Z,42.23
2023-04-26T03:59:15.488Z,42.10
2023-04-26T03:59:38.936Z,42.30
2023-04-26T04:00:00.597Z,42.18
2023-04-26T04:00:22.654Z,42.20
2023-04-26T04:00:44.506Z,42.07
2023-04-26T04:01:07.039Z,42.28
2023-04-26T04:01:29.533Z,42.28
2023-04-26T04:01:51.335Z,42.03
2023-04-26T04:02:13.163Z,41.97
2023-04-26T04:02:36.173Z,42.30
2023-04-26T04:02:59.189Z,42.21
2023-04-26T04:03:21.840Z,42.10
2023-04-26T04:03:44.127Z,42.19
2023-04-26T04:04:06.260Z,42.14
2023-04-26T04:04:29.453Z,42.34
2023-04-26T04:04:52.272Z,42.39
2023-04-26T04:05:14.239Z,42.41
2023-04-26T04:05:37.956Z,42.36
2023-04-26T04:06:00.048Z,42.25
2023-04-26T04:06:21.893Z,42.24
2023-04-26T04:06:44.156Z,42.30
2023-04-26T04:07:07.950Z,42.12
2023-04-26T04:07:29.960Z,42.44
2023-04-26T04:07:52.157Z,42.31
2023-04-26T04:08:15.587Z,42.24
2023-04-26T04:08:38.191Z,42.21
2023-04-26T04:09:04.186Z,42.56
2023-04-26T04:09:26.243Z,42.45
2023-04-26T04:09:48.776Z,42.64
2023-04-26T04:10:11.981Z,42.44
2023-04-26T04:10:36.107Z,41.94
2023-04-26T04:10:57.766Z,42.65
2023-04-26T04:11:21.407Z,42.65
2023-04-26T04:11:43.080Z,42.94
2023-04-26T04:12:04.944Z,42.61
2023-04-26T04:12:27.122Z,42.84
2023-04-26T04:12:50.086Z,42.71
2023-04-26T04:13:11.824Z,42.69
2023-04-26T04:13:33.489Z,42.75
2023-04-26T04:13:55.173Z,42.76
2023-04-26T04:14:17.757Z,42.88
2023-04-26T04:14:41.301Z,43.01
2023-04-26T04:15:03.309Z,42.94
2023-04-26T04:15:25.647Z,43.04
2023-04-26T04:15:49.750Z,43.10
2023-04-26T04:16:11.523Z,42.89
2023-04-26T04:16:33.234Z,43.05
2023-04-26T04:16:54.853Z,42.83
2023-04-26T04:17:16.638Z,42.75
2023-04-26T04:17:39.361Z,42.81
2023-04-26T04:18:00.995Z,42.92
2023-04-26T04:18:22.636Z,42.67
2023-04-26T04:18:44.298Z,42.87
2023-04-26T04:19:06.832Z,42.75
2023-04-26T04:19:28.507Z,42.72
2023-04-26T04:19:50.438Z,42.93
2023-04-26T04:20:13.202Z,42.99
2023-04-26T04:20:35.502Z,42.90
2023-04-26T04:20:58.242Z,43.06
2023-04-26T04:21:19.937Z,43.32
2023-04-26T04:21:43.190Z,43.27
2023-04-26T04:22:04.889Z,43.16
2023-04-26T04:22:32.051Z,43.06
2023-04-26T04:22:53.708Z,43.08
2023-04-26T04:23:15.672Z,43.23
2023-04-26T04:23:37.445Z,42.94
2023-04-26T04:24:05.848Z,43.14
2023-04-26T04:24:27.476Z,42.92
2023-04-26T04:24:49.045Z,42.96
2023-04-26T04:25:10.731Z,43.00
2023-04-26T04:25:34.633Z,42.93
2023-04-26T04:25:59.917Z,42.95
2023-04-26T04:26:22.048Z,42.95
2023-04-26T04:26:44.037Z,43.21
2023-04-26T04:27:06.267Z,43.17
2023-04-26T04:27:29.029Z,43.20
2023-04-26T04:27:51.880Z,43.17
2023-04-26T04:28:13.563Z,43.31
2023-04-26T04:28:35.428Z,42.98
2023-04-26T04:28:58.577Z,43.14
2023-04-26T04:29:20.329Z,43.10
2023-04-26T04:29:42.245Z,42.95
2023-04-26T04:30:04.589Z,42.78
2023-04-26T04:30:27.404Z,42.97
2023-04-26T04:30:49.110Z,42.94
2023-04-26T04:31:11.240Z,43.16
2023-04-26T04:31:32.998Z,43.16
2023-04-26T04:31:55.968Z,43.30
2023-04-26T04:32:18.600Z,43.33
2023-04-26T04:32:42.332Z,43.33
2023-04-26T04:33:05.179Z,43.35
2023-04-26T04:33:28.816Z,43.28
2023-04-26T04:33:51.848Z,43.38
2023-04-26T04:34:13.527Z,43.31
2023-04-26T04:34:37.705Z,43.39
2023-04-26T04:34:59.582Z,43.53
2023-04-26T04:35:22.968Z,43.43
2023-04-26T04:35:44.807Z,43.44
2023-04-26T04:36:08.430Z,43.36
2023-04-26T04:36:31.235Z,43.55
2023-04-26T04:36:52.960Z,43.34
2023-04-26T04:37:15.433Z,43.50
2023-04-26T04:37:39.179Z,43.53
2023-04-26T04:38:01.617Z,43.44
2023-04-26T04:38:23.376Z,43.41
2023-04-26T04:38:48.415Z,43.58
2023-04-26T04:39:16.170Z,43.77
2023-04-26T04:39:38.960Z,43.82
2023-04-26T04:40:00.905Z,43.80
2023-04-26T04:40:23.938Z,43.68
2023-04-26T04:40:47.849Z,43.70
2023-04-26T04:41:10.279Z,43.71
2023-04-26T04:41:32.754Z,43.59
2023-04-26T04:41:55.429Z,43.63
2023-04-26T04:42:18.261Z,43.46
2023-04-26T04:42:39.925Z,43.67
2023-04-26T04:43:03.315Z,43.52
2023-04-26T04:43:27.908Z,43.51
2023-04-26T04:43:49.630Z,43.51
2023-04-26T04:44:13.264Z,43.57
2023-04-26T04:44:35.225Z,43.70
2023-04-26T04:44:59.814Z,43.54
2023-04-26T04:45:23.072Z,43.47
2023-04-26T04:45:49.211Z,43.42
2023-04-26T04:46:12.736Z,43.28
2023-04-26T04:46:35.562Z,43.32
2023-04-26T04:46:58.366Z,43.50
2023-04-26T04:47:20.034Z,43.23
2023-04-26T04:47:42.423Z,43.14
2023-04-26T04:48:05.160Z,43.18
2023-04-26T04:48:28.261Z,43.35
2023-04-26T04:48:50.964Z,43.18
2023-04-26T04:49:12.892Z,43.15
2023-04-26T04:49:34.782Z,43.14
2023-04-26T04:49:57.417Z,43.18
2023-04-26T04:50:19.268Z,43.22
2023-04-26T04:50:42.048Z,42.97
2023-04-26T04:51:03.684Z,42.96
2023-04-26T04:51:26.240Z,43.18
2023-04-26T04:51:48.212Z,43.04
2023-04-26T04:52:10.000Z,43.11
2023-04-26T04:52:33.138Z,43.10